sensor_id;sensor_type;location;lat;lon;timestamp;P1;durP1;ratioP1;P2;durP2;ratioP2
30398;SDS011;17195;50.838;7.214;2023-04-01T00:00:44;3.95;;;0.52;;
30398;SDS011;17195;50.838;7.214;2023-04-01T00:03:10;0.77;;;0.40;;
30398;SDS011;17195;50.838;7.214;2023-04-01T00:05:36;2.20;;;0.30;;
30398;SDS011;17195;50.838;7.214;2023-04-01T00:08:02;1.10;;;0.40;;
30398;SDS011;17195;50.838;7.214;2023-04-01T00:10:28;1.05;;;0.30;;
30398;SDS011;17195;50.838;7.214;2023-04-01T00:12:53;2.05;;;0.50;;
30398;SDS011;17195;50.838;7.214;2023-04-01T00:15:19;2.08;;;0.40;;
30398;SDS011;17195;50.838;7.214;2023-04-01T00:17:45;1.15;;;0.30;;
30398;SDS011;17195;50.838;7.214;2023-04-01T00:20:11;1.55;;;0.40;;
30398;SDS011;17195;50.838;7.214;2023-04-01T00:22:37;0.88;;;0.40;;
30398;SDS011;17195;50.838;7.214;2023-04-01T00:25:03;0.73;;;0.30;;
30398;SDS011;17195;50.838;7.214;2023-04-01T00:27:29;0.80;;;0.25;;
30398;SDS011;17195;50.838;7.214;2023-04-01T00:29:55;1.33;;;0.30;;
30398;SDS011;17195;50.838;7.214;2023-04-01T00:32:20;2.67;;;0.43;;
30398;SDS011;17195;50.838;7.214;2023-04-01T00:34:49;2.03;;;0.30;;
30398;SDS011;17195;50.838;7.214;2023-04-01T00:37:16;0.75;;;0.22;;
30398;SDS011;17195;50.838;7.214;2023-04-01T00:39:42;2.55;;;0.50;;
30398;SDS011;17195;50.838;7.214;2023-04-01T00:42:08;2.13;;;0.30;;
30398;SDS011;17195;50.838;7.214;2023-04-01T00:44:34;1.30;;;0.20;;
30398;SDS011;17195;50.838;7.214;2023-04-01T00:47:02;0.85;;;0.25;;
30398;SDS011;17195;50.838;7.214;2023-04-01T00:49:31;1.20;;;0.40;;
30398;SDS011;17195;50.838;7.214;2023-04-01T00:52:02;3.08;;;0.30;;
30398;SDS011;17195;50.838;7.214;2023-04-01T00:54:29;3.13;;;0.22;;
30398;SDS011;17195;50.838;7.214;2023-04-01T00:56:56;0.60;;;0.20;;
30398;SDS011;17195;50.838;7.214;2023-04-01T00:59:26;0.95;;;0.32;;
30398;SDS011;17195;50.838;7.214;2023-04-01T01:01:56;1.50;;;0.30;;
30398;SDS011;17195;50.838;7.214;2023-04-01T01:04:23;2.55;;;0.40;;
30398;SDS011;17195;50.838;7.214;2023-04-01T01:07:00;1.15;;;0.50;;
30398;SDS011;17195;50.838;7.214;2023-04-01T01:09:35;1.73;;;0.40;;
30398;SDS011;17195;50.838;7.214;2023-04-01T01:17:38;2.67;;;0.40;;
30398;SDS011;17195;50.838;7.214;2023-04-01T01:31:30;0.40;;;0.20;;
30398;SDS011;17195;50.838;7.214;2023-04-01T01:36:40;1.30;;;0.30;;
30398;SDS011;17195;50.838;7.214;2023-04-01T01:39:10;1.92;;;0.45;;
30398;SDS011;17195;50.838;7.214;2023-04-01T01:41:37;0.28;;;0.17;;
30398;SDS011;17195;50.838;7.214;2023-04-01T01:44:07;1.08;;;0.20;;
30398;SDS011;17195;50.838;7.214;2023-04-01T01:46:34;0.43;;;0.25;;
30398;SDS011;17195;50.838;7.214;2023-04-01T01:49:02;1.08;;;0.20;;
30398;SDS011;17195;50.838;7.214;2023-04-01T01:51:31;1.58;;;0.10;;
30398;SDS011;17195;50.838;7.214;2023-04-01T01:53:56;0.90;;;0.28;;
30398;SDS011;17195;50.838;7.214;2023-04-01T01:56:23;1.02;;;0.20;;
30398;SDS011;17195;50.838;7.214;2023-04-01T01:58:54;2.22;;;0.30;;
30398;SDS011;17195;50.838;7.214;2023-04-01T02:01:27;1.75;;;0.30;;
30398;SDS011;17195;50.838;7.214;2023-04-01T02:03:55;1.70;;;0.22;;
30398;SDS011;17195;50.838;7.214;2023-04-01T02:06:23;1.30;;;0.22;;
30398;SDS011;17195;50.838;7.214;2023-04-01T02:11:46;0.80;;;0.30;;
30398;SDS011;17195;50.838;7.214;2023-04-01T02:14:19;2.17;;;0.20;;
30398;SDS011;17195;50.838;7.214;2023-04-01T02:16:57;0.90;;;0.20;;
30398;SDS011;17195;50.838;7.214;2023-04-01T02:19:31;0.77;;;0.20;;
30398;SDS011;17195;50.838;7.214;2023-04-01T02:22:02;1.55;;;0.20;;
30398;SDS011;17195;50.838;7.214;2023-04-01T02:24:31;0.82;;;0.17;;
30398;SDS011;17195;50.838;7.214;2023-04-01T02:26:58;1.05;;;0.20;;
30398;SDS011;17195;50.838;7.214;2023-04-01T02:29:25;1.15;;;0.25;;
30398;SDS011;17195;50.838;7.214;2023-04-01T02:31:52;0.88;;;0.38;;
30398;SDS011;17195;50.838;7.214;2023-04-01T02:34:20;0.50;;;0.22;;
30398;SDS011;17195;50.838;7.214;2023-04-01T02:36:47;1.55;;;0.30;;
30398;SDS011;17195;50.838;7.214;2023-04-01T02:39:14;0.60;;;0.15;;
30398;SDS011;17195;50.838;7.214;2023-04-01T02:41:41;0.43;;;0.20;;
30398;SDS011;17195;50.838;7.214;2023-04-01T02:44:08;1.50;;;0.30;;
30398;SDS011;17195;50.838;7.214;2023-04-01T02:46:35;2.78;;;0.40;;
30398;SDS011;17195;50.838;7.214;2023-04-01T02:49:01;1.25;;;0.20;;
30398;SDS011;17195;50.838;7.214;2023-04-01T02:51:27;1.50;;;0.55;;
30398;SDS011;17195;50.838;7.214;2023-04-01T02:53:52;2.92;;;0.35;;
30398;SDS011;17195;50.838;7.214;2023-04-01T02:56:18;0.45;;;0.10;;
30398;SDS011;17195;50.838;7.214;2023-04-01T02:58:44;0.43;;;0.20;;
30398;SDS011;17195;50.838;7.214;2023-04-01T03:01:10;0.55;;;0.20;;
30398;SDS011;17195;50.838;7.214;2023-04-01T03:03:36;0.73;;;0.38;;
30398;SDS011;17195;50.838;7.214;2023-04-01T03:06:04;1.15;;;0.40;;
30398;SDS011;17195;50.838;7.214;2023-04-01T03:08:34;0.30;;;0.20;;
30398;SDS011;17195;50.838;7.214;2023-04-01T03:11:00;1.00;;;0.50;;
30398;SDS011;17195;50.838;7.214;2023-04-01T03:13:25;1.55;;;0.50;;
30398;SDS011;17195;50.838;7.214;2023-04-01T03:15:51;0.90;;;0.50;;
30398;SDS011;17195;50.838;7.214;2023-04-01T03:18:16;1.17;;;0.30;;
30398;SDS011;17195;50.838;7.214;2023-04-01T03:20:42;0.80;;;0.40;;
30398;SDS011;17195;50.838;7.214;2023-04-01T03:23:08;2.55;;;0.43;;
30398;SDS011;17195;50.838;7.214;2023-04-01T03:25:34;3.83;;;0.40;;
30398;SDS011;17195;50.838;7.214;2023-04-01T03:27:59;0.95;;;0.20;;
30398;SDS011;17195;50.838;7.214;2023-04-01T03:30:26;0.75;;;0.20;;
30398;SDS011;17195;50.838;7.214;2023-04-01T03:32:51;0.38;;;0.17;;
30398;SDS011;17195;50.838;7.214;2023-04-01T03:35:17;2.92;;;0.10;;
30398;SDS011;17195;50.838;7.214;2023-04-01T03:37:43;0.10;;;0.10;;
30398;SDS011;17195;50.838;7.214;2023-04-01T03:40:09;1.17;;;0.10;;
30398;SDS011;17195;50.838;7.214;2023-04-01T03:42:35;0.47;;;0.10;;
30398;SDS011;17195;50.838;7.214;2023-04-01T03:45:00;3.45;;;0.13;;
30398;SDS011;17195;50.838;7.214;2023-04-01T03:47:27;2.30;;;0.30;;
30398;SDS011;17195;50.838;7.214;2023-04-01T03:49:53;1.55;;;0.20;;
30398;SDS011;17195;50.838;7.214;2023-04-01T03:52:19;1.60;;;0.30;;
30398;SDS011;17195;50.838;7.214;2023-04-01T03:54:44;1.10;;;0.15;;
30398;SDS011;17195;50.838;7.214;2023-04-01T03:57:10;0.30;;;0.10;;
30398;SDS011;17195;50.838;7.214;2023-04-01T03:59:35;0.38;;;0.10;;
30398;SDS011;17195;50.838;7.214;2023-04-01T04:02:01;1.48;;;0.20;;
30398;SDS011;17195;50.838;7.214;2023-04-01T04:04:27;0.98;;;0.17;;
30398;SDS011;17195;50.838;7.214;2023-04-01T04:06:53;0.73;;;0.30;;
30398;SDS011;17195;50.838;7.214;2023-04-01T04:09:19;0.52;;;0.25;;
30398;SDS011;17195;50.838;7.214;2023-04-01T04:11:44;0.35;;;0.20;;
30398;SDS011;17195;50.838;7.214;2023-04-01T04:14:10;0.50;;;0.15;;
30398;SDS011;17195;50.838;7.214;2023-04-01T04:16:36;1.55;;;0.28;;
30398;SDS011;17195;50.838;7.214;2023-04-01T04:19:02;0.68;;;0.15;;
30398;SDS011;17195;50.838;7.214;2023-04-01T04:21:29;0.88;;;0.30;;
30398;SDS011;17195;50.838;7.214;2023-04-01T04:23:54;1.60;;;0.40;;
30398;SDS011;17195;50.838;7.214;2023-04-01T04:26:20;1.45;;;0.30;;
30398;SDS011;17195;50.838;7.214;2023-04-01T04:28:45;0.80;;;0.40;;
30398;SDS011;17195;50.838;7.214;2023-04-01T04:31:11;0.88;;;0.40;;
30398;SDS011;17195;50.838;7.214;2023-04-01T04:33:37;0.63;;;0.30;;
30398;SDS011;17195;50.838;7.214;2023-04-01T04:36:03;1.67;;;0.40;;
30398;SDS011;17195;50.838;7.214;2023-04-01T04:38:29;0.47;;;0.30;;
30398;SDS011;17195;50.838;7.214;2023-04-01T04:40:55;1.00;;;0.30;;
30398;SDS011;17195;50.838;7.214;2023-04-01T04:43:21;0.10;;;0.10;;
30398;SDS011;17195;50.838;7.214;2023-04-01T04:45:47;0.52;;;0.20;;
30398;SDS011;17195;50.838;7.214;2023-04-01T04:48:14;0.52;;;0.10;;
30398;SDS011;17195;50.838;7.214;2023-04-01T04:50:45;0.15;;;0.10;;
30398;SDS011;17195;50.838;7.214;2023-04-01T04:53:13;0.15;;;0.10;;
30398;SDS011;17195;50.838;7.214;2023-04-01T04:55:44;0.10;;;0.10;;
30398;SDS011;17195;50.838;7.214;2023-04-01T04:58:14;0.30;;;0.30;;
30398;SDS011;17195;50.838;7.214;2023-04-01T05:00:40;0.65;;;0.10;;
30398;SDS011;17195;50.838;7.214;2023-04-01T05:03:06;0.17;;;0.10;;
30398;SDS011;17195;50.838;7.214;2023-04-01T05:05:31;0.75;;;0.10;;
30398;SDS011;17195;50.838;7.214;2023-04-01T05:07:57;0.20;;;0.10;;
30398;SDS011;17195;50.838;7.214;2023-04-01T05:10:23;0.28;;;0.10;;
30398;SDS011;17195;50.838;7.214;2023-04-01T05:12:48;0.75;;;0.10;;
30398;SDS011;17195;50.838;7.214;2023-04-01T05:15:14;0.22;;;0.10;;
30398;SDS011;17195;50.838;7.214;2023-04-01T05:17:40;0.45;;;0.10;;
30398;SDS011;17195;50.838;7.214;2023-04-01T05:20:05;0.10;;;0.08;;
30398;SDS011;17195;50.838;7.214;2023-04-01T05:22:32;0.45;;;0.10;;
30398;SDS011;17195;50.838;7.214;2023-04-01T05:24:57;0.10;;;0.10;;
30398;SDS011;17195;50.838;7.214;2023-04-01T05:27:23;0.40;;;0.10;;
30398;SDS011;17195;50.838;7.214;2023-04-01T05:29:48;0.43;;;0.13;;
30398;SDS011;17195;50.838;7.214;2023-04-01T05:32:14;0.20;;;0.20;;
30398;SDS011;17195;50.838;7.214;2023-04-01T05:34:40;0.10;;;0.10;;
30398;SDS011;17195;50.838;7.214;2023-04-01T05:37:06;0.10;;;0.10;;
30398;SDS011;17195;50.838;7.214;2023-04-01T05:39:35;0.40;;;0.10;;
30398;SDS011;17195;50.838;7.214;2023-04-01T05:42:07;2.20;;;0.20;;
30398;SDS011;17195;50.838;7.214;2023-04-01T05:44:33;0.90;;;0.20;;
30398;SDS011;17195;50.838;7.214;2023-04-01T05:46:59;2.33;;;0.22;;
30398;SDS011;17195;50.838;7.214;2023-04-01T05:49:25;0.93;;;0.30;;
30398;SDS011;17195;50.838;7.214;2023-04-01T05:51:51;2.20;;;0.20;;
30398;SDS011;17195;50.838;7.214;2023-04-01T05:54:16;1.58;;;0.55;;
30398;SDS011;17195;50.838;7.214;2023-04-01T05:56:43;1.95;;;0.20;;
30398;SDS011;17195;50.838;7.214;2023-04-01T05:59:09;1.20;;;0.10;;
30398;SDS011;17195;50.838;7.214;2023-04-01T06:01:35;1.63;;;0.20;;
30398;SDS011;17195;50.838;7.214;2023-04-01T06:04:01;1.48;;;0.22;;
30398;SDS011;17195;50.838;7.214;2023-04-01T06:06:27;0.20;;;0.10;;
30398;SDS011;17195;50.838;7.214;2023-04-01T06:08:56;1.05;;;0.20;;
30398;SDS011;17195;50.838;7.214;2023-04-01T06:14:10;1.00;;;0.80;;
30398;SDS011;17195;50.838;7.214;2023-04-01T06:19:36;1.15;;;0.10;;
30398;SDS011;17195;50.838;7.214;2023-04-01T06:38:17;1.65;;;0.20;;
30398;SDS011;17195;50.838;7.214;2023-04-01T06:41:06;3.05;;;1.77;;
30398;SDS011;17195;50.838;7.214;2023-04-01T06:49:56;0.50;;;0.20;;
30398;SDS011;17195;50.838;7.214;2023-04-01T06:55:24;0.22;;;0.20;;
30398;SDS011;17195;50.838;7.214;2023-04-01T06:57:55;0.40;;;0.20;;
30398;SDS011;17195;50.838;7.214;2023-04-01T07:00:27;1.30;;;0.22;;
30398;SDS011;17195;50.838;7.214;2023-04-01T07:05:58;0.45;;;0.17;;
30398;SDS011;17195;50.838;7.214;2023-04-01T07:08:29;0.50;;;0.20;;
30398;SDS011;17195;50.838;7.214;2023-04-01T07:13:34;0.45;;;0.30;;
30398;SDS011;17195;50.838;7.214;2023-04-01T07:16:05;1.77;;;0.30;;
30398;SDS011;17195;50.838;7.214;2023-04-01T07:21:47;0.88;;;0.25;;
30398;SDS011;17195;50.838;7.214;2023-04-01T07:24:21;0.43;;;0.32;;
30398;SDS011;17195;50.838;7.214;2023-04-01T07:26:54;0.40;;;0.40;;
30398;SDS011;17195;50.838;7.214;2023-04-01T07:29:21;4.22;;;1.05;;
30398;SDS011;17195;50.838;7.214;2023-04-01T07:35:03;0.90;;;0.55;;
30398;SDS011;17195;50.838;7.214;2023-04-01T07:54:08;1.15;;;0.63;;
30398;SDS011;17195;50.838;7.214;2023-04-01T07:56:57;1.80;;;0.40;;
30398;SDS011;17195;50.838;7.214;2023-04-01T08:05:53;0.50;;;0.50;;
30398;SDS011;17195;50.838;7.214;2023-04-01T08:13:45;1.35;;;0.73;;
30398;SDS011;17195;50.838;7.214;2023-04-01T08:16:36;1.50;;;0.60;;
30398;SDS011;17195;50.838;7.214;2023-04-01T08:21:58;0.60;;;0.50;;
30398;SDS011;17195;50.838;7.214;2023-04-01T08:24:44;2.35;;;0.60;;
30398;SDS011;17195;50.838;7.214;2023-04-01T08:27:13;2.60;;;0.90;;
30398;SDS011;17195;50.838;7.214;2023-04-01T08:29:52;2.65;;;2.13;;
30398;SDS011;17195;50.838;7.214;2023-04-01T08:32:25;1.58;;;0.52;;
30398;SDS011;17195;50.838;7.214;2023-04-01T08:35:07;5.85;;;2.80;;
30398;SDS011;17195;50.838;7.214;2023-04-01T08:37:41;2.30;;;0.63;;
30398;SDS011;17195;50.838;7.214;2023-04-01T08:40:18;2.60;;;0.93;;
30398;SDS011;17195;50.838;7.214;2023-04-01T08:48:53;1.75;;;0.70;;
30398;SDS011;17195;50.838;7.214;2023-04-01T08:54:30;1.10;;;1.00;;
30398;SDS011;17195;50.838;7.214;2023-04-01T08:57:32;2.25;;;1.10;;
30398;SDS011;17195;50.838;7.214;2023-04-01T09:09:47;0.47;;;0.47;;
30398;SDS011;17195;50.838;7.214;2023-04-01T09:12:03;0.73;;;0.43;;
30398;SDS011;17195;50.838;7.214;2023-04-01T09:39:55;1.10;;;0.30;;
30398;SDS011;17195;50.838;7.214;2023-04-01T09:43:04;0.43;;;0.38;;
30398;SDS011;17195;50.838;7.214;2023-04-01T09:48:44;0.47;;;0.30;;
30398;SDS011;17195;50.838;7.214;2023-04-01T09:51:34;2.30;;;0.52;;
30398;SDS011;17195;50.838;7.214;2023-04-01T09:54:32;0.60;;;0.50;;
30398;SDS011;17195;50.838;7.214;2023-04-01T10:02:52;0.70;;;0.40;;
30398;SDS011;17195;50.838;7.214;2023-04-01T10:11:56;0.75;;;0.50;;
30398;SDS011;17195;50.838;7.214;2023-04-01T10:23:16;1.27;;;0.70;;
30398;SDS011;17195;50.838;7.214;2023-04-01T10:29:15;0.57;;;0.40;;
30398;SDS011;17195;50.838;7.214;2023-04-01T10:36:51;0.63;;;0.40;;
30398;SDS011;17195;50.838;7.214;2023-04-01T10:42:13;0.88;;;0.50;;
30398;SDS011;17195;50.838;7.214;2023-04-01T11:06:57;1.50;;;0.82;;
30398;SDS011;17195;50.838;7.214;2023-04-01T11:13:02;0.73;;;0.73;;
30398;SDS011;17195;50.838;7.214;2023-04-01T11:15:59;0.60;;;0.60;;
30398;SDS011;17195;50.838;7.214;2023-04-01T11:27:13;0.60;;;0.60;;
30398;SDS011;17195;50.838;7.214;2023-04-01T11:43:11;0.68;;;0.68;;
30398;SDS011;17195;50.838;7.214;2023-04-01T11:46:00;0.57;;;0.40;;
30398;SDS011;17195;50.838;7.214;2023-04-01T11:48:37;0.88;;;0.43;;
30398;SDS011;17195;50.838;7.214;2023-04-01T11:54:24;0.52;;;0.50;;
30398;SDS011;17195;50.838;7.214;2023-04-01T12:03:02;1.55;;;0.80;;
30398;SDS011;17195;50.838;7.214;2023-04-01T12:05:49;1.88;;;0.68;;
30398;SDS011;17195;50.838;7.214;2023-04-01T12:11:15;1.20;;;1.00;;
30398;SDS011;17195;50.838;7.214;2023-04-01T12:13:45;0.93;;;0.57;;
30398;SDS011;17195;50.838;7.214;2023-04-01T12:16:22;0.95;;;0.88;;
30398;SDS011;17195;50.838;7.214;2023-04-01T12:19:32;0.70;;;0.70;;
30398;SDS011;17195;50.838;7.214;2023-04-01T12:22:04;1.20;;;0.70;;
30398;SDS011;17195;50.838;7.214;2023-04-01T12:35:44;1.55;;;0.90;;
30398;SDS011;17195;50.838;7.214;2023-04-01T12:41:32;0.60;;;0.60;;
30398;SDS011;17195;50.838;7.214;2023-04-01T12:44:08;0.68;;;0.68;;
30398;SDS011;17195;50.838;7.214;2023-04-01T12:46:58;0.73;;;0.73;;
30398;SDS011;17195;50.838;7.214;2023-04-01T12:57:32;1.52;;;1.00;;
30398;SDS011;17195;50.838;7.214;2023-04-01T13:20:11;1.75;;;1.30;;
30398;SDS011;17195;50.838;7.214;2023-04-01T13:22:59;0.70;;;0.68;;
30398;SDS011;17195;50.838;7.214;2023-04-01T13:28:21;1.20;;;0.80;;
30398;SDS011;17195;50.838;7.214;2023-04-01T13:33:40;0.75;;;0.50;;
30398;SDS011;17195;50.838;7.214;2023-04-01T13:42:23;1.20;;;1.10;;
30398;SDS011;17195;50.838;7.214;2023-04-01T13:53:42;0.75;;;0.75;;
30398;SDS011;17195;50.838;7.214;2023-04-01T13:56:23;0.93;;;0.63;;
30398;SDS011;17195;50.838;7.214;2023-04-01T14:07:47;1.05;;;0.63;;
30398;SDS011;17195;50.838;7.214;2023-04-01T14:14:07;1.33;;;1.23;;
30398;SDS011;17195;50.838;7.214;2023-04-01T14:36:38;2.35;;;1.83;;
30398;SDS011;17195;50.838;7.214;2023-04-01T14:48:22;2.60;;;1.65;;
30398;SDS011;17195;50.838;7.214;2023-04-01T14:50:50;1.70;;;1.60;;
30398;SDS011;17195;50.838;7.214;2023-04-01T14:55:51;1.52;;;1.40;;
30398;SDS011;17195;50.838;7.214;2023-04-01T14:58:18;1.40;;;1.23;;
30398;SDS011;17195;50.838;7.214;2023-04-01T15:42:19;3.25;;;1.27;;
30398;SDS011;17195;50.838;7.214;2023-04-01T15:44:51;1.10;;;1.00;;
30398;SDS011;17195;50.838;7.214;2023-04-01T15:49:56;1.33;;;1.00;;
30398;SDS011;17195;50.838;7.214;2023-04-01T15:53:03;1.73;;;1.30;;
30398;SDS011;17195;50.838;7.214;2023-04-01T15:55:56;2.28;;;1.52;;
30398;SDS011;17195;50.838;7.214;2023-04-01T16:04:28;3.17;;;1.63;;
30398;SDS011;17195;50.838;7.214;2023-04-01T16:23:13;2.40;;;1.98;;
30398;SDS011;17195;50.838;7.214;2023-04-01T16:26:01;3.40;;;2.45;;
30398;SDS011;17195;50.838;7.214;2023-04-01T16:31:06;8.32;;;4.97;;
30398;SDS011;17195;50.838;7.214;2023-04-01T16:33:40;3.33;;;2.78;;
30398;SDS011;17195;50.838;7.214;2023-04-01T16:42:09;4.20;;;3.30;;
30398;SDS011;17195;50.838;7.214;2023-04-01T16:44:54;3.70;;;2.33;;
30398;SDS011;17195;50.838;7.214;2023-04-01T16:47:35;4.85;;;2.72;;
30398;SDS011;17195;50.838;7.214;2023-04-01T16:50:24;20.58;;;10.60;;
30398;SDS011;17195;50.838;7.214;2023-04-01T16:55:24;3.00;;;1.80;;
30398;SDS011;17195;50.838;7.214;2023-04-01T16:58:34;2.50;;;2.10;;
30398;SDS011;17195;50.838;7.214;2023-04-01T17:01:06;2.83;;;2.20;;
30398;SDS011;17195;50.838;7.214;2023-04-01T17:03:41;2.80;;;2.10;;
30398;SDS011;17195;50.838;7.214;2023-04-01T17:11:39;5.30;;;4.13;;
30398;SDS011;17195;50.838;7.214;2023-04-01T17:14:38;3.30;;;3.00;;
30398;SDS011;17195;50.838;7.214;2023-04-01T17:22:55;2.22;;;1.98;;
30398;SDS011;17195;50.838;7.214;2023-04-01T17:25:39;4.13;;;3.40;;
30398;SDS011;17195;50.838;7.214;2023-04-01T17:39:46;1.63;;;1.50;;
30398;SDS011;17195;50.838;7.214;2023-04-01T17:42:27;2.58;;;1.55;;
30398;SDS011;17195;50.838;7.214;2023-04-01T17:45:11;2.88;;;2.10;;
30398;SDS011;17195;50.838;7.214;2023-04-01T17:53:31;1.90;;;1.80;;
30398;SDS011;17195;50.838;7.214;2023-04-01T17:59:10;5.55;;;3.72;;
30398;SDS011;17195;50.838;7.214;2023-04-01T18:19:18;2.58;;;2.38;;
30398;SDS011;17195;50.838;7.214;2023-04-01T18:25:12;8.48;;;5.93;;
30398;SDS011;17195;50.838;7.214;2023-04-01T18:27:40;2.53;;;2.00;;
30398;SDS011;17195;50.838;7.214;2023-04-01T18:30:26;3.38;;;3.08;;
30398;SDS011;17195;50.838;7.214;2023-04-01T18:38:33;4.38;;;3.42;;
30398;SDS011;17195;50.838;7.214;2023-04-01T18:41:14;5.47;;;4.18;;
30398;SDS011;17195;50.838;7.214;2023-04-01T18:49:45;6.10;;;4.70;;
30398;SDS011;17195;50.838;7.214;2023-04-01T18:52:31;4.35;;;3.60;;
30398;SDS011;17195;50.838;7.214;2023-04-01T19:03:07;4.90;;;4.03;;
30398;SDS011;17195;50.838;7.214;2023-04-01T19:05:52;4.07;;;3.40;;
30398;SDS011;17195;50.838;7.214;2023-04-01T19:08:38;4.00;;;3.60;;
30398;SDS011;17195;50.838;7.214;2023-04-01T19:16:46;3.25;;;2.80;;
30398;SDS011;17195;50.838;7.214;2023-04-01T19:19:29;3.33;;;3.03;;
30398;SDS011;17195;50.838;7.214;2023-04-01T19:25:23;4.30;;;3.78;;
30398;SDS011;17195;50.838;7.214;2023-04-01T19:28:07;5.55;;;2.95;;
30398;SDS011;17195;50.838;7.214;2023-04-01T19:30:58;4.18;;;3.78;;
30398;SDS011;17195;50.838;7.214;2023-04-01T19:33:43;3.47;;;3.15;;
30398;SDS011;17195;50.838;7.214;2023-04-01T19:39:18;4.78;;;3.33;;
30398;SDS011;17195;50.838;7.214;2023-04-01T19:41:57;5.88;;;3.15;;
30398;SDS011;17195;50.838;7.214;2023-04-01T19:50:06;5.10;;;4.45;;
30398;SDS011;17195;50.838;7.214;2023-04-01T19:52:48;5.05;;;4.55;;
30398;SDS011;17195;50.838;7.214;2023-04-01T19:58:20;7.38;;;5.22;;
30398;SDS011;17195;50.838;7.214;2023-04-01T20:00:54;7.60;;;4.85;;
30398;SDS011;17195;50.838;7.214;2023-04-01T20:09:02;6.53;;;4.95;;
30398;SDS011;17195;50.838;7.214;2023-04-01T20:14:46;6.15;;;5.55;;
30398;SDS011;17195;50.838;7.214;2023-04-01T20:17:20;10.38;;;7.32;;
30398;SDS011;17195;50.838;7.214;2023-04-01T20:22:53;9.07;;;5.72;;
30398;SDS011;17195;50.838;7.214;2023-04-01T20:25:46;8.43;;;6.50;;
30398;SDS011;17195;50.838;7.214;2023-04-01T20:28:25;7.78;;;6.47;;
30398;SDS011;17195;50.838;7.214;2023-04-01T20:31:20;7.15;;;6.10;;
30398;SDS011;17195;50.838;7.214;2023-04-01T20:33:57;8.55;;;7.65;;
30398;SDS011;17195;50.838;7.214;2023-04-01T20:36:56;7.90;;;7.10;;
30398;SDS011;17195;50.838;7.214;2023-04-01T20:42:22;8.02;;;7.03;;
30398;SDS011;17195;50.838;7.214;2023-04-01T20:45:10;8.18;;;7.22;;
30398;SDS011;17195;50.838;7.214;2023-04-01T20:58:32;7.63;;;6.28;;
30398;SDS011;17195;50.838;7.214;2023-04-01T21:07:14;4.65;;;4.25;;
30398;SDS011;17195;50.838;7.214;2023-04-01T21:09:45;5.85;;;5.35;;
30398;SDS011;17195;50.838;7.214;2023-04-01T21:15:30;4.20;;;3.45;;
30398;SDS011;17195;50.838;7.214;2023-04-01T21:18:24;2.83;;;2.60;;
30398;SDS011;17195;50.838;7.214;2023-04-01T21:21:16;5.43;;;3.30;;
30398;SDS011;17195;50.838;7.214;2023-04-01T21:26:32;4.32;;;3.45;;
30398;SDS011;17195;50.838;7.214;2023-04-01T21:38:00;2.90;;;2.30;;
30398;SDS011;17195;50.838;7.214;2023-04-01T21:46:34;6.93;;;4.95;;
30398;SDS011;17195;50.838;7.214;2023-04-01T21:49:09;12.85;;;7.05;;
30398;SDS011;17195;50.838;7.214;2023-04-01T21:54:55;14.48;;;8.65;;
30398;SDS011;17195;50.838;7.214;2023-04-01T22:06:00;3.45;;;2.85;;
30398;SDS011;17195;50.838;7.214;2023-04-01T22:13:39;2.88;;;2.67;;
30398;SDS011;17195;50.838;7.214;2023-04-01T22:16:18;5.07;;;3.15;;
30398;SDS011;17195;50.838;7.214;2023-04-01T22:21:51;2.50;;;2.30;;
30398;SDS011;17195;50.838;7.214;2023-04-01T22:27:15;3.15;;;2.65;;
30398;SDS011;17195;50.838;7.214;2023-04-01T22:32:55;3.40;;;3.10;;
30398;SDS011;17195;50.838;7.214;2023-04-01T22:38:22;3.30;;;2.58;;
30398;SDS011;17195;50.838;7.214;2023-04-01T22:41:17;3.67;;;2.30;;
30398;SDS011;17195;50.838;7.214;2023-04-01T22:43:55;2.90;;;2.58;;
30398;SDS011;17195;50.838;7.214;2023-04-01T22:49:20;2.50;;;2.30;;
30398;SDS011;17195;50.838;7.214;2023-04-01T22:54:24;2.78;;;2.17;;
30398;SDS011;17195;50.838;7.214;2023-04-01T22:57:00;1.83;;;1.70;;
30398;SDS011;17195;50.838;7.214;2023-04-01T23:02:14;1.63;;;1.52;;
30398;SDS011;17195;50.838;7.214;2023-04-01T23:05:02;2.17;;;1.40;;
30398;SDS011;17195;50.838;7.214;2023-04-01T23:12:56;2.95;;;1.70;;
30398;SDS011;17195;50.838;7.214;2023-04-01T23:15:25;2.03;;;1.83;;
30398;SDS011;17195;50.838;7.214;2023-04-01T23:20:47;3.35;;;1.80;;
30398;SDS011;17195;50.838;7.214;2023-04-01T23:26:34;2.28;;;2.08;;
30398;SDS011;17195;50.838;7.214;2023-04-01T23:29:12;3.28;;;1.58;;
30398;SDS011;17195;50.838;7.214;2023-04-01T23:31:40;2.42;;;1.80;;
30398;SDS011;17195;50.838;7.214;2023-04-01T23:36:42;1.90;;;1.80;;
30398;SDS011;17195;50.838;7.214;2023-04-01T23:39:23;3.40;;;2.00;;
30398;SDS011;17195;50.838;7.214;2023-04-01T23:41:56;2.13;;;1.90;;
30398;SDS011;17195;50.838;7.214;2023-04-01T23:44:32;2.90;;;2.13;;
30398;SDS011;17195;50.838;7.214;2023-04-01T23:47:00;2.80;;;2.03;;
30398;SDS011;17195;50.838;7.214;2023-04-01T23:49:30;2.60;;;2.40;;
30398;SDS011;17195;50.838;7.214;2023-04-01T23:52:09;2.80;;;2.50;;
30398;SDS011;17195;50.838;7.214;2023-04-01T23:54:44;2.53;;;2.33;;
30398;SDS011;17195;50.838;7.214;2023-04-01T23:57:29;2.80;;;2.60;;
